Overview Statistics Trail Chart Weather Telemetry Raw packets
 

This is the latest recevied weather packets stored in our database for station/object EPGD. If no packets are shown the sender has not sent any weather packets the latest 10 day(s).

<< 1 2 3 4 5 6 7 >>
Time Temp. Humidity Pressure Rain* Wind** Luminosity Snow
1788465903 15.56° C 87% 1010 hPa - - - -
1788464104 15.56° C 87% 1010 hPa - - - -
1788462304 15.56° C 87% 1010 hPa - - - -
1788460504 15.56° C 87% 1011 hPa - - - -
1788458704 15° C 93% 1011 hPa - - - -
1788456904 15.56° C 87% 1011 hPa - - - -
1788455104 15° C 100% 1012 hPa - - - -
1788453304 15.56° C 93% 1012 hPa - - - -
1788451504 15° C 100% 1012 hPa - - - -
1788449704 15.56° C 93% 1013 hPa - - - -
1788447904 15.56° C 93% 1013 hPa - - - -
1788446104 15.56° C 87% 1013 hPa - - - -
1788444304 16.67° C 82% 1014 hPa - - - -
1788442504 18.89° C 68% 1013 hPa - - - -
1788440704 18.89° C 68% 1014 hPa - - - -
1788438903 18.89° C 63% 1014 hPa - - - -
1788437104 20° C 59% 1014 hPa - - - -
1788435304 20° C 59% 1014 hPa - - - -
1788433504 20° C 59% 1014 hPa - - - -
1788431703 20° C 59% 1015 hPa - - - -
1788429904 18.89° C 63% 1015 hPa - - - -
1788428104 18.89° C 68% 1015 hPa - - - -
1788426304 18.89° C 68% 1015 hPa - - - -
1788424504 18.89° C 68% 1015 hPa - - - -
1788422704 17.78° C 72% 1015 hPa - - - -

* Rain since midnight (hover to see other rain measurements)
** Current wind speed in m/s (hover to see current wind gust speed)